createdAt,value
2018-11-27T00:00:13.229Z,5.83
2018-11-27T00:02:40.794Z,7.50
2018-11-27T00:05:09.373Z,7.63
2018-11-27T00:07:37.076Z,6.63
2018-11-27T00:10:07.111Z,11.10
2018-11-27T00:12:35.315Z,6.80
2018-11-27T00:15:03.862Z,8.40
2018-11-27T00:17:32.399Z,7.60
2018-11-27T00:19:59.990Z,8.03
2018-11-27T00:22:27.590Z,6.47
2018-11-27T00:24:55.236Z,8.07
2018-11-27T00:27:26.473Z,7.70
2018-11-27T00:29:54.203Z,8.60
2018-11-27T00:32:21.821Z,7.07
2018-11-27T00:34:49.459Z,8.97
2018-11-27T00:37:17.043Z,6.77
2018-11-27T00:39:45.622Z,7.23
2018-11-27T00:42:14.379Z,6.90
2018-11-27T00:44:46.765Z,5.40
2018-11-27T00:47:14.506Z,5.57
2018-11-27T00:49:42.160Z,5.90
2018-11-27T00:52:09.673Z,7.47
2018-11-27T00:54:37.337Z,6.67
2018-11-27T00:57:04.993Z,6.67
2018-11-27T00:59:32.616Z,6.70
2018-11-27T01:02:00.165Z,6.57
2018-11-27T01:04:27.833Z,6.70
2018-11-27T01:06:55.425Z,6.33
2018-11-27T01:09:22.990Z,6.17
2018-11-27T01:11:54.267Z,5.63
2018-11-27T01:14:21.883Z,5.40
2018-11-27T01:16:49.565Z,7.37
2018-11-27T01:19:19.172Z,6.37
2018-11-27T01:21:46.749Z,7.80
2018-11-27T01:24:14.367Z,7.50
2018-11-27T01:26:41.932Z,7.70
2018-11-27T01:29:09.513Z,7.13
2018-11-27T01:31:37.277Z,6.83
2018-11-27T01:34:05.100Z,6.73
2018-11-27T01:36:32.741Z,6.70
2018-11-27T01:39:00.317Z,7.07
2018-11-27T01:41:27.864Z,6.73
2018-11-27T01:43:56.027Z,6.73
2018-11-27T01:46:23.826Z,7.10
2018-11-27T01:48:51.589Z,5.87
2018-11-27T01:51:19.121Z,6.77
2018-11-27T01:53:46.754Z,5.90
2018-11-27T01:56:15.373Z,4.97
2018-11-27T01:58:42.955Z,5.10
2018-11-27T02:01:10.526Z,5.00
2018-11-27T02:03:38.119Z,5.10
2018-11-27T02:06:06.713Z,5.30
2018-11-27T02:08:34.291Z,6.03
2018-11-27T02:11:01.864Z,5.80
2018-11-27T02:13:29.410Z,6.83
2018-11-27T02:15:58.966Z,6.77
2018-11-27T02:18:26.540Z,6.10
2018-11-27T02:20:54.095Z,6.80
2018-11-27T02:23:21.628Z,8.97
2018-11-27T02:25:49.267Z,6.23
2018-11-27T02:28:16.868Z,6.33
2018-11-27T02:30:44.417Z,5.20
2018-11-27T02:33:12.173Z,5.07
2018-11-27T02:35:39.756Z,6.13
2018-11-27T02:38:07.318Z,5.77
2018-11-27T02:40:34.911Z,6.70
2018-11-27T02:43:02.481Z,5.40
2018-11-27T02:45:30.017Z,4.70
2018-11-27T02:47:57.618Z,6.30
2018-11-27T02:50:25.865Z,6.27
2018-11-27T02:52:53.470Z,7.17
2018-11-27T02:55:22.705Z,4.87
2018-11-27T02:57:50.297Z,6.10
2018-11-27T03:00:25.732Z,5.53
2018-11-27T03:02:53.340Z,4.67
2018-11-27T03:05:29.281Z,5.07
2018-11-27T03:07:56.888Z,5.17
2018-11-27T03:10:24.454Z,5.23
2018-11-27T03:12:52.387Z,5.70
2018-11-27T03:15:20.013Z,4.70
2018-11-27T03:17:47.564Z,5.80
2018-11-27T03:20:16.250Z,4.23
2018-11-27T03:22:43.855Z,4.43
2018-11-27T03:25:13.289Z,5.30
2018-11-27T03:27:40.931Z,4.30
2018-11-27T03:30:12.521Z,5.70
2018-11-27T03:32:40.179Z,5.67
2018-11-27T03:35:09.450Z,5.60
2018-11-27T03:37:37.044Z,4.67
2018-11-27T03:40:07.326Z,5.73
2018-11-27T03:42:34.919Z,5.13
2018-11-27T03:45:02.525Z,4.27
2018-11-27T03:47:30.078Z,4.83
2018-11-27T03:49:57.642Z,4.07
2018-11-27T03:52:25.213Z,5.17
2018-11-27T03:54:52.775Z,3.87
2018-11-27T03:57:20.333Z,4.07
2018-11-27T03:59:47.899Z,4.77
2018-11-27T04:02:15.512Z,4.77
2018-11-27T04:04:43.082Z,4.47
2018-11-27T04:07:10.623Z,4.67
2018-11-27T04:09:38.215Z,4.87
2018-11-27T04:12:05.786Z,6.20
2018-11-27T04:14:33.319Z,5.10
2018-11-27T04:17:00.830Z,5.83
2018-11-27T04:19:28.382Z,6.50
2018-11-27T04:21:55.967Z,4.53
2018-11-27T04:24:23.551Z,5.63
2018-11-27T04:26:51.099Z,4.73
2018-11-27T04:29:18.699Z,6.43
2018-11-27T04:31:46.360Z,7.97
2018-11-27T04:34:13.954Z,5.90
2018-11-27T04:36:41.486Z,8.23
2018-11-27T04:39:09.121Z,6.20
2018-11-27T04:41:36.675Z,6.30
2018-11-27T04:44:04.356Z,6.17
2018-11-27T04:46:31.887Z,5.87
2018-11-27T04:48:59.418Z,5.67
2018-11-27T04:51:26.973Z,5.43
2018-11-27T04:53:54.552Z,6.23
2018-11-27T04:56:22.137Z,6.30
2018-11-27T04:58:49.734Z,7.47
2018-11-27T05:01:17.325Z,5.50
2018-11-27T05:03:44.969Z,6.93
2018-11-27T05:06:12.521Z,5.93
2018-11-27T05:08:40.148Z,7.93
2018-11-27T05:11:07.702Z,5.53
2018-11-27T05:13:35.251Z,7.27
2018-11-27T05:16:02.813Z,6.13
2018-11-27T05:18:30.378Z,5.97
2018-11-27T05:20:57.942Z,6.00
2018-11-27T05:23:25.513Z,5.03
2018-11-27T05:25:53.109Z,5.00
2018-11-27T05:28:20.710Z,5.60
2018-11-27T05:30:48.326Z,5.83
2018-11-27T05:33:15.868Z,6.13
2018-11-27T05:35:43.453Z,5.73
2018-11-27T05:38:11.072Z,4.73
2018-11-27T05:40:38.737Z,5.27
2018-11-27T05:43:08.090Z,4.47
2018-11-27T05:45:35.718Z,4.77
2018-11-27T05:48:03.334Z,4.47
2018-11-27T05:50:30.923Z,5.40
2018-11-27T05:52:58.482Z,4.50
2018-11-27T05:55:26.302Z,4.70
2018-11-27T05:57:54.627Z,5.00
2018-11-27T06:00:25.267Z,4.50
2018-11-27T06:02:54.978Z,6.03
2018-11-27T06:05:22.906Z,5.13
2018-11-27T06:07:50.519Z,4.37
2018-11-27T06:10:18.970Z,4.73
2018-11-27T06:12:46.679Z,4.87
2018-11-27T06:15:16.089Z,5.63
2018-11-27T06:17:44.263Z,4.17
2018-11-27T06:20:14.686Z,4.10
2018-11-27T06:22:42.294Z,4.67
2018-11-27T06:25:13.867Z,5.13
2018-11-27T06:27:41.492Z,3.73
2018-11-27T06:30:14.102Z,4.07
2018-11-27T06:32:41.705Z,4.20
2018-11-27T06:35:10.865Z,3.60
2018-11-27T06:37:38.562Z,4.70
2018-11-27T06:40:24.433Z,5.17
2018-11-27T06:42:52.150Z,4.73
2018-11-27T06:45:20.251Z,4.50
2018-11-27T06:47:48.648Z,4.03
2018-11-27T06:50:17.434Z,4.17
2018-11-27T06:52:45.167Z,4.50
2018-11-27T06:55:13.731Z,4.43
2018-11-27T06:57:41.326Z,4.27
2018-11-27T07:00:11.990Z,6.00
2018-11-27T07:02:39.565Z,5.07
2018-11-27T07:05:08.037Z,5.00
2018-11-27T07:07:35.582Z,4.90
2018-11-27T07:10:03.470Z,7.17
2018-11-27T07:12:31.095Z,5.77
2018-11-27T07:14:59.727Z,5.47
2018-11-27T07:17:27.310Z,5.97
2018-11-27T07:19:54.865Z,6.17
2018-11-27T07:22:22.446Z,7.47
2018-11-27T07:24:50.225Z,6.37
2018-11-27T07:27:17.753Z,6.30
2018-11-27T07:29:45.543Z,5.60
2018-11-27T07:32:13.095Z,5.33
2018-11-27T07:34:40.751Z,5.67
2018-11-27T07:37:08.309Z,7.33
2018-11-27T07:39:35.887Z,9.27
2018-11-27T07:42:03.546Z,8.03
2018-11-27T07:44:31.170Z,6.67
2018-11-27T07:46:58.757Z,5.53
2018-11-27T07:49:26.301Z,5.87
2018-11-27T07:51:53.858Z,5.20
2018-11-27T07:54:21.460Z,5.27
2018-11-27T07:56:49.036Z,4.73
2018-11-27T07:59:16.586Z,5.17
2018-11-27T08:01:44.184Z,6.03
2018-11-27T08:04:11.740Z,4.87
2018-11-27T08:06:39.282Z,5.73
2018-11-27T08:09:08.555Z,6.97
2018-11-27T08:11:36.134Z,7.33
2018-11-27T08:14:03.765Z,7.07
2018-11-27T08:16:31.371Z,7.00
2018-11-27T08:18:59.126Z,6.87
2018-11-27T08:21:26.655Z,7.77
2018-11-27T08:23:54.246Z,6.00
2018-11-27T08:26:21.807Z,7.83
2018-11-27T08:28:49.446Z,8.27
2018-11-27T08:31:19.206Z,6.90
2018-11-27T08:33:46.911Z,8.70
2018-11-27T08:36:14.478Z,9.60
2018-11-27T08:38:42.049Z,7.57
2018-11-27T08:41:09.584Z,7.20
2018-11-27T08:43:37.204Z,8.13
2018-11-27T08:46:05.177Z,8.63
2018-11-27T08:48:32.751Z,7.40
2018-11-27T08:51:00.278Z,8.00
2018-11-27T08:53:27.834Z,7.17
2018-11-27T08:55:55.578Z,9.13
2018-11-27T08:58:23.147Z,8.20
2018-11-27T09:00:50.722Z,7.77
2018-11-27T09:03:18.302Z,7.00
2018-11-27T09:05:45.918Z,7.87
2018-11-27T09:08:13.498Z,12.00
2018-11-27T09:10:41.131Z,8.87
2018-11-27T09:13:08.719Z,6.80
2018-11-27T09:15:36.448Z,7.13
2018-11-27T09:18:15.246Z,7.23
2018-11-27T09:20:42.866Z,6.80
2018-11-27T09:23:10.396Z,8.57
2018-11-27T09:25:37.969Z,11.47
2018-11-27T09:28:05.616Z,9.03
2018-11-27T09:30:33.210Z,9.73
2018-11-27T09:33:00.782Z,7.20
2018-11-27T09:35:28.337Z,7.60
2018-11-27T09:37:55.902Z,8.67
2018-11-27T09:40:23.470Z,9.67
2018-11-27T09:42:51.053Z,9.40
2018-11-27T09:45:21.550Z,8.77
2018-11-27T09:47:50.153Z,9.17
2018-11-27T09:50:17.827Z,10.63
2018-11-27T09:52:45.438Z,9.60
2018-11-27T09:55:22.428Z,9.17
2018-11-27T09:57:50.017Z,8.20
2018-11-27T10:00:20.715Z,9.23
2018-11-27T10:02:49.878Z,8.07
2018-11-27T10:05:17.446Z,8.87
2018-11-27T10:07:45.027Z,7.37
2018-11-27T10:10:13.987Z,8.30
2018-11-27T10:12:41.553Z,10.27
2018-11-27T10:15:11.150Z,9.90
2018-11-27T10:17:38.723Z,11.03
2018-11-27T10:20:08.525Z,9.83
2018-11-27T10:22:36.129Z,9.37
2018-11-27T10:25:04.178Z,8.80
2018-11-27T10:27:31.750Z,8.77
2018-11-27T10:29:59.314Z,10.23
2018-11-27T10:32:26.947Z,8.63
2018-11-27T10:34:54.462Z,9.10
2018-11-27T10:37:22.002Z,8.13
2018-11-27T10:39:49.559Z,8.43
2018-11-27T10:42:17.099Z,10.87
2018-11-27T10:44:44.699Z,8.63
2018-11-27T10:47:12.266Z,9.27
2018-11-27T10:49:39.942Z,10.00
2018-11-27T10:52:07.486Z,8.57
2018-11-27T10:54:35.160Z,9.20
2018-11-27T10:57:02.812Z,9.43
2018-11-27T10:59:31.386Z,10.20
2018-11-27T11:02:04.734Z,9.63
2018-11-27T11:04:32.394Z,9.73
2018-11-27T11:07:00.158Z,9.80
2018-11-27T11:09:27.722Z,8.73
2018-11-27T11:11:59.224Z,7.73
2018-11-27T11:14:22.938Z,8.17
2018-11-27T11:16:50.514Z,10.20
2018-11-27T11:19:19.099Z,8.47
2018-11-27T11:21:46.736Z,9.20
2018-11-27T11:24:14.317Z,9.23
2018-11-27T11:26:41.988Z,9.40
2018-11-27T11:29:09.561Z,9.20
2018-11-27T11:31:37.120Z,9.43
2018-11-27T11:34:06.119Z,9.27
2018-11-27T11:36:33.999Z,9.33
2018-11-27T11:39:02.050Z,8.03
2018-11-27T11:41:31.404Z,8.07
2018-11-27T11:43:57.351Z,9.40
2018-11-27T11:46:24.894Z,8.57
2018-11-27T11:48:52.462Z,7.87
2018-11-27T11:51:20.050Z,9.03
2018-11-27T11:53:50.408Z,9.17
2018-11-27T11:56:20.143Z,8.60
2018-11-27T11:58:49.870Z,8.37
2018-11-27T12:01:19.562Z,6.83
2018-11-27T12:03:48.155Z,6.93
2018-11-27T12:06:16.778Z,6.83
2018-11-27T12:08:44.391Z,8.93
2018-11-27T12:11:12.234Z,8.93
2018-11-27T12:13:39.832Z,9.30
2018-11-27T12:16:07.498Z,9.47
2018-11-27T12:18:42.466Z,8.50
2018-11-27T12:21:10.050Z,10.30
2018-11-27T12:23:38.687Z,9.37
2018-11-27T12:26:06.321Z,8.30
2018-11-27T12:28:33.988Z,8.93
2018-11-27T12:31:01.588Z,8.87
2018-11-27T12:33:29.151Z,9.77
2018-11-27T12:35:56.817Z,10.33
2018-11-27T12:38:24.358Z,9.57
2018-11-27T12:40:52.166Z,9.73
2018-11-27T12:43:20.763Z,9.60
2018-11-27T12:45:48.467Z,8.93
2018-11-27T12:48:16.161Z,8.80
2018-11-27T12:50:47.706Z,9.00
2018-11-27T12:53:17.168Z,8.73
2018-11-27T12:55:45.201Z,9.03
2018-11-27T12:58:12.817Z,13.07
2018-11-27T13:00:40.496Z,12.67
2018-11-27T13:03:08.101Z,12.20
2018-11-27T13:05:40.731Z,12.20
2018-11-27T13:08:11.726Z,10.23
2018-11-27T13:10:40.337Z,9.67
2018-11-27T13:13:07.930Z,10.30
2018-11-27T13:15:38.070Z,8.80
2018-11-27T13:18:07.693Z,11.07
2018-11-27T13:20:36.883Z,9.17
2018-11-27T13:23:04.729Z,11.37
2018-11-27T13:25:32.302Z,11.83
2018-11-27T13:27:59.979Z,9.73
2018-11-27T13:30:44.811Z,11.47
2018-11-27T13:33:17.838Z,12.03
2018-11-27T13:35:45.601Z,10.67
2018-11-27T13:38:13.327Z,10.53
2018-11-27T13:40:40.899Z,9.33
2018-11-27T13:43:09.167Z,8.90
2018-11-27T13:45:37.128Z,8.50
2018-11-27T13:48:05.994Z,7.93
2018-11-27T13:50:33.515Z,9.00
2018-11-27T13:53:01.124Z,8.23
2018-11-27T13:55:30.844Z,9.23
2018-11-27T13:57:59.479Z,8.23
2018-11-27T14:00:27.272Z,9.30
2018-11-27T14:03:02.284Z,8.37
2018-11-27T14:05:29.843Z,9.03
2018-11-27T14:08:01.608Z,7.47
2018-11-27T14:10:29.203Z,8.13
2018-11-27T14:12:56.818Z,7.77
2018-11-27T14:15:25.278Z,7.97
2018-11-27T14:17:55.199Z,9.93
2018-11-27T14:20:22.798Z,8.97
2018-11-27T14:22:50.688Z,8.40
2018-11-27T14:25:18.572Z,8.23
2018-11-27T14:27:48.051Z,8.63
2018-11-27T14:30:21.316Z,9.13
2018-11-27T14:32:49.047Z,7.30
2018-11-27T14:35:20.822Z,6.50
2018-11-27T14:37:53.648Z,6.40
2018-11-27T14:40:22.645Z,6.20
2018-11-27T14:42:50.815Z,6.67
2018-11-27T14:45:20.919Z,7.73
2018-11-27T14:47:49.582Z,7.43
2018-11-27T14:50:17.298Z,7.83
2018-11-27T14:52:44.867Z,7.13
2018-11-27T14:55:15.716Z,7.90
2018-11-27T14:57:43.385Z,10.10
2018-11-27T15:00:15.058Z,8.03
2018-11-27T15:02:42.720Z,8.27
2018-11-27T15:05:15.894Z,7.70
2018-11-27T15:07:43.457Z,7.60
2018-11-27T15:10:12.284Z,6.07
2018-11-27T15:12:39.938Z,7.70
2018-11-27T15:15:09.371Z,7.03
2018-11-27T15:17:37.000Z,8.07
2018-11-27T15:20:07.818Z,8.53
2018-11-27T15:22:35.461Z,9.10
2018-11-27T15:25:05.496Z,9.77
2018-11-27T15:27:33.078Z,7.10
2018-11-27T15:30:00.932Z,6.57
2018-11-27T15:32:28.494Z,6.80
2018-11-27T15:34:56.055Z,7.13
2018-11-27T15:37:23.610Z,8.03
2018-11-27T15:39:51.225Z,8.57
2018-11-27T15:42:18.983Z,9.93
2018-11-27T15:44:46.578Z,9.80
2018-11-27T15:47:14.141Z,9.67
2018-11-27T15:49:41.801Z,9.43
2018-11-27T15:52:09.326Z,8.30
2018-11-27T15:54:36.980Z,8.23
2018-11-27T15:57:04.854Z,7.60
2018-11-27T15:59:32.370Z,7.27
2018-11-27T16:02:01.051Z,9.50
2018-11-27T16:04:28.618Z,8.90
2018-11-27T16:07:00.039Z,8.17
2018-11-27T16:09:27.634Z,7.67
2018-11-27T16:11:55.362Z,7.17
2018-11-27T16:14:22.964Z,9.33
2018-11-27T16:16:50.672Z,7.03
2018-11-27T16:19:22.773Z,8.33
2018-11-27T16:21:50.438Z,8.07
2018-11-27T16:24:18.145Z,7.83
2018-11-27T16:26:47.018Z,7.97
2018-11-27T16:29:14.799Z,7.70
2018-11-27T16:31:49.782Z,6.83
2018-11-27T16:34:17.374Z,7.77
2018-11-27T16:36:44.921Z,10.93
2018-11-27T16:39:13.514Z,7.57
2018-11-27T16:41:42.639Z,7.33
2018-11-27T16:44:10.226Z,6.83
2018-11-27T16:46:37.789Z,7.17
2018-11-27T16:49:06.056Z,6.77
2018-11-27T16:51:33.673Z,6.57
2018-11-27T16:54:01.623Z,7.47
2018-11-27T16:56:29.188Z,10.60
2018-11-27T16:58:56.775Z,9.83
2018-11-27T17:01:24.346Z,7.13
2018-11-27T17:03:52.110Z,7.13
2018-11-27T17:06:19.822Z,6.80
2018-11-27T17:08:47.883Z,7.07
2018-11-27T17:11:15.473Z,10.87
2018-11-27T17:13:43.122Z,8.30
2018-11-27T17:16:10.697Z,9.13
2018-11-27T17:18:38.415Z,8.27
2018-11-27T17:21:06.174Z,12.03
2018-11-27T17:23:35.531Z,10.80
2018-11-27T17:26:04.130Z,10.20
2018-11-27T17:28:31.156Z,7.83
2018-11-27T17:31:10.912Z,7.67
2018-11-27T17:33:47.252Z,9.17
2018-11-27T17:36:14.929Z,9.27
2018-11-27T17:38:42.570Z,11.47
2018-11-27T17:41:10.211Z,9.97
2018-11-27T17:43:38.783Z,8.93
2018-11-27T17:46:06.731Z,8.20
2018-11-27T17:48:34.502Z,7.80
2018-11-27T17:51:06.646Z,7.20
2018-11-27T17:53:34.317Z,12.63
2018-11-27T17:56:01.922Z,7.17
2018-11-27T17:58:29.525Z,6.70
2018-11-27T18:00:57.124Z,7.63
2018-11-27T18:03:28.073Z,7.57
2018-11-27T18:05:55.601Z,7.97
2018-11-27T18:08:23.134Z,8.00
2018-11-27T18:10:50.841Z,8.97
2018-11-27T18:13:19.466Z,10.73
2018-11-27T18:15:47.277Z,9.80
2018-11-27T18:18:19.485Z,9.60
2018-11-27T18:20:49.085Z,10.27
2018-11-27T18:23:16.895Z,9.73
2018-11-27T18:25:45.554Z,9.60
2018-11-27T18:28:14.770Z,9.40
2018-11-27T18:30:48.448Z,8.17
2018-11-27T18:33:20.277Z,8.27
2018-11-27T18:35:53.396Z,9.20
2018-11-27T18:38:22.795Z,8.73
2018-11-27T18:40:53.624Z,8.10
2018-11-27T18:43:24.542Z,8.93
2018-11-27T18:45:53.336Z,7.90
2018-11-27T18:48:21.276Z,8.57
2018-11-27T18:50:49.563Z,8.53
2018-11-27T18:53:18.603Z,9.30
2018-11-27T18:55:47.915Z,8.57
2018-11-27T18:58:22.360Z,8.40
2018-11-27T19:00:51.070Z,8.40
2018-11-27T19:03:19.045Z,7.90
2018-11-27T19:05:47.054Z,9.93
2018-11-27T19:08:15.081Z,7.03
2018-11-27T19:10:42.946Z,6.73
2018-11-27T19:13:11.566Z,8.50
2018-11-27T19:15:46.351Z,7.23
2018-11-27T19:18:19.426Z,6.30
2018-11-27T19:20:50.898Z,7.70
2018-11-27T19:23:23.691Z,6.67
2018-11-27T19:25:57.035Z,6.23
2018-11-27T19:28:24.756Z,6.47
2018-11-27T19:30:52.640Z,7.23
2018-11-27T19:33:20.279Z,6.57
2018-11-27T19:35:48.355Z,8.63
2018-11-27T19:38:20.618Z,8.07
2018-11-27T19:40:53.169Z,9.60
2018-11-27T19:43:20.764Z,7.00
2018-11-27T19:45:48.532Z,5.53
2018-11-27T19:48:19.776Z,6.30
2018-11-27T19:50:47.793Z,6.13
2018-11-27T19:53:16.856Z,6.77
2018-11-27T19:55:44.596Z,7.03
2018-11-27T19:58:14.233Z,8.00
2018-11-27T20:00:43.899Z,7.70
2018-11-27T20:03:12.593Z,7.23
2018-11-27T20:05:41.545Z,6.07
2018-11-27T20:08:14.379Z,6.07
2018-11-27T20:10:46.745Z,6.10
2018-11-27T20:13:15.413Z,9.67
2018-11-27T20:15:44.027Z,5.87
2018-11-27T20:18:16.089Z,5.40
2018-11-27T20:20:43.689Z,5.10
2018-11-27T20:23:11.345Z,5.20
2018-11-27T20:25:38.958Z,6.40
2018-11-27T20:28:08.417Z,4.40
2018-11-27T20:30:41.747Z,3.70
2018-11-27T20:33:15.193Z,5.57
2018-11-27T20:35:42.808Z,6.63
2018-11-27T20:38:10.846Z,8.93
2018-11-27T20:40:39.346Z,5.27
2018-11-27T20:43:07.207Z,5.17
2018-11-27T20:45:37.090Z,5.40
2018-11-27T20:48:13.625Z,5.37
2018-11-27T20:50:41.319Z,5.27
2018-11-27T20:53:08.969Z,7.23
2018-11-27T20:55:39.592Z,4.30
2018-11-27T20:58:09.322Z,4.90
2018-11-27T21:00:38.136Z,5.23
2018-11-27T21:03:07.285Z,4.20
2018-11-27T21:05:34.969Z,5.77
2018-11-27T21:08:05.312Z,5.43
2018-11-27T21:10:38.969Z,4.97
2018-11-27T21:13:10.783Z,4.60
2018-11-27T21:15:41.542Z,3.93
2018-11-27T21:18:10.851Z,3.77
2018-11-27T21:20:39.329Z,3.30
2018-11-27T21:23:08.034Z,7.57
2018-11-27T21:25:35.583Z,9.47
2018-11-27T21:28:12.781Z,3.80
2018-11-27T21:30:40.486Z,4.23
2018-11-27T21:33:08.176Z,4.47
2018-11-27T21:35:39.789Z,5.13
2018-11-27T21:38:08.470Z,7.53
2018-11-27T21:40:38.114Z,6.87
2018-11-27T21:43:09.160Z,8.00
2018-11-27T21:45:37.791Z,11.20
2018-11-27T21:48:07.119Z,9.53
2018-11-27T21:50:38.800Z,10.77
2018-11-27T21:53:06.430Z,4.40
2018-11-27T21:55:36.623Z,4.63
2018-11-27T21:58:04.872Z,5.07
2018-11-27T22:00:33.524Z,4.73
2018-11-27T22:03:01.165Z,4.83
2018-11-27T22:05:28.741Z,5.07
2018-11-27T22:07:56.406Z,6.40
2018-11-27T22:10:24.595Z,6.00
2018-11-27T22:12:57.212Z,5.93
2018-11-27T22:15:28.379Z,11.47
2018-11-27T22:17:58.081Z,12.63
2018-11-27T22:20:25.647Z,10.47
2018-11-27T22:22:53.334Z,13.63
2018-11-27T22:25:21.945Z,10.93
2018-11-27T22:27:49.580Z,8.60
2018-11-27T22:30:18.275Z,12.30
2018-11-27T22:32:47.637Z,15.00
2018-11-27T22:35:16.332Z,9.50
2018-11-27T22:37:45.159Z,7.87
2018-11-27T22:40:18.771Z,6.37
2018-11-27T22:42:47.369Z,6.80
2018-11-27T22:45:33.357Z,6.77
2018-11-27T22:48:01.058Z,6.97
2018-11-27T22:50:28.652Z,6.70
2018-11-27T22:52:56.293Z,7.13
2018-11-27T22:55:23.969Z,7.80
2018-11-27T22:57:51.746Z,6.40
2018-11-27T23:00:29.133Z,6.20
2018-11-27T23:02:57.944Z,8.07
2018-11-27T23:05:27.543Z,8.30
2018-11-27T23:07:55.440Z,9.63
2018-11-27T23:10:26.426Z,8.27
2018-11-27T23:12:54.054Z,7.77
2018-11-27T23:15:21.822Z,8.87
2018-11-27T23:17:49.487Z,8.17
2018-11-27T23:20:17.803Z,7.43
2018-11-27T23:22:46.559Z,6.27
2018-11-27T23:25:16.664Z,6.77
2018-11-27T23:27:44.330Z,6.43
2018-11-27T23:30:14.188Z,7.00
2018-11-27T23:32:45.123Z,5.97
2018-11-27T23:35:12.826Z,6.43
2018-11-27T23:37:40.464Z,6.80
2018-11-27T23:40:09.320Z,6.30
2018-11-27T23:42:37.329Z,6.93
2018-11-27T23:45:09.211Z,9.10
2018-11-27T23:47:36.852Z,8.83
2018-11-27T23:50:05.378Z,6.93
2018-11-27T23:52:33.042Z,7.23
2018-11-27T23:55:00.587Z,7.17
2018-11-27T23:57:28.129Z,6.07
2018-11-27T23:59:55.958Z,7.27
